Terminal Aerodrome Forecast
Issued by NWS Omaha/Valley, NE

Home | Current Version | Previous Version | Text Only | Print | Product List | Glossary On
Versions: 1 2 3 4 5 6 7 8 9 10 11 12 13 14 15 16 17 18 19 20 21 22 23 24 25 26 27 28 29 30 31 32 33 34
000
FTUS43 KOAX 291732
TAFLNK
TAF
KLNK 291732Z 2918/3018 17007KT P6SM SCT060 BKN130
     FM292000 15006KT P6SM VCTS BKN100CB
     FM300300 VRB03KT P6SM BKN140 PROB30 3003/3008 4SM -TSRA
      OVC040CB
     FM300800 00000KT P6SM -SHRA VCTS BKN100CB=

USA.gov is the U.S. government's official web portal to all federal, state and local government web resources and services.